createdAt,value
2022-07-25T00:01:36.407Z,58.94
2022-07-25T00:04:12.516Z,58.48
2022-07-25T00:06:44.606Z,58.55
2022-07-25T00:09:16.138Z,58.89
2022-07-25T00:11:47.974Z,58.87
2022-07-25T00:14:19.485Z,58.91
2022-07-25T00:16:51.297Z,58.99
2022-07-25T00:19:22.814Z,58.86
2022-07-25T00:21:54.612Z,58.49
2022-07-25T00:24:26.105Z,59.50
2022-07-25T00:26:58.070Z,58.72
2022-07-25T00:29:29.572Z,58.73
2022-07-25T00:32:01.409Z,58.50
2022-07-25T00:34:32.950Z,58.51
2022-07-25T00:37:04.803Z,58.91
2022-07-25T00:39:36.642Z,58.51
2022-07-25T00:42:08.853Z,59.13
2022-07-25T00:44:40.391Z,59.37
2022-07-25T00:47:12.399Z,59.33
2022-07-25T00:49:43.949Z,58.63
2022-07-25T00:52:15.811Z,59.04
2022-07-25T00:54:47.324Z,59.41
2022-07-25T00:57:19.317Z,59.49
2022-07-25T00:59:50.849Z,59.21
2022-07-25T01:02:22.824Z,59.53
2022-07-25T01:04:55.000Z,60.29
2022-07-25T01:07:26.919Z,59.33
2022-07-25T01:09:58.474Z,59.89
2022-07-25T01:12:30.318Z,60.28
2022-07-25T01:15:01.831Z,61.09
2022-07-25T01:17:33.376Z,61.10
2022-07-25T01:20:04.894Z,61.68
2022-07-25T01:22:36.785Z,62.08
2022-07-25T01:25:08.619Z,62.68
2022-07-25T01:27:40.172Z,62.64
2022-07-25T01:30:12.211Z,62.89
2022-07-25T01:32:43.725Z,62.75
2022-07-25T01:35:15.783Z,63.06
2022-07-25T01:37:47.327Z,62.98
2022-07-25T01:40:19.258Z,63.34
2022-07-25T01:42:50.763Z,63.42
2022-07-25T01:45:22.674Z,63.37
2022-07-25T01:47:54.558Z,63.24
2022-07-25T01:50:26.475Z,63.38
2022-07-25T01:52:57.988Z,63.52
2022-07-25T01:55:29.886Z,64.25
2022-07-25T01:58:02.654Z,64.01
2022-07-25T02:00:34.861Z,64.36
2022-07-25T02:03:45.060Z,64.25
2022-07-25T02:06:16.911Z,64.49
2022-07-25T02:08:48.441Z,64.72
2022-07-25T02:11:21.752Z,65.09
2022-07-25T02:13:53.306Z,65.40
2022-07-25T02:16:29.016Z,65.23
2022-07-25T02:19:01.001Z,65.39
2022-07-25T02:21:32.883Z,65.64
2022-07-25T02:24:04.767Z,65.81
2022-07-25T02:26:36.837Z,66.36
2022-07-25T02:29:08.436Z,66.08
2022-07-25T02:31:40.284Z,66.64
2022-07-25T02:34:11.849Z,66.73
2022-07-25T02:36:43.809Z,66.85
2022-07-25T02:39:15.364Z,66.43
2022-07-25T02:41:47.343Z,66.24
2022-07-25T02:44:18.946Z,66.74
2022-07-25T02:46:50.820Z,66.74
2022-07-25T02:49:22.393Z,66.73
2022-07-25T02:51:54.278Z,66.56
2022-07-25T02:54:25.818Z,66.84
2022-07-25T02:56:58.963Z,65.76
2022-07-25T02:59:32.236Z,65.56
2022-07-25T03:02:03.983Z,65.74
2022-07-25T03:04:35.543Z,65.52
2022-07-25T03:07:07.474Z,66.00
2022-07-25T03:09:39.006Z,64.75
2022-07-25T03:12:10.945Z,65.64
2022-07-25T03:14:42.468Z,65.11
2022-07-25T03:17:14.279Z,65.29
2022-07-25T03:19:45.831Z,64.90
2022-07-25T03:22:17.684Z,64.71
2022-07-25T03:24:49.195Z,63.69
2022-07-25T03:27:21.156Z,63.67
2022-07-25T03:29:54.626Z,63.70
2022-07-25T03:32:26.152Z,63.37
2022-07-25T03:34:58.029Z,62.94
2022-07-25T03:37:29.522Z,63.17
2022-07-25T03:40:01.392Z,62.43
2022-07-25T03:42:35.298Z,62.89
2022-07-25T03:45:07.622Z,62.57
2022-07-25T03:47:39.184Z,62.28
2022-07-25T03:50:11.028Z,61.87
2022-07-25T03:52:42.579Z,61.89
2022-07-25T03:55:14.524Z,61.92
2022-07-25T03:57:46.033Z,61.95
2022-07-25T04:00:17.982Z,62.16
2022-07-25T04:02:49.641Z,61.82
2022-07-25T04:05:21.537Z,61.63
2022-07-25T04:07:53.126Z,60.93
2022-07-25T04:10:24.675Z,61.50
2022-07-25T04:12:56.206Z,60.83
2022-07-25T04:15:27.912Z,61.01
2022-07-25T04:18:01.109Z,60.77
2022-07-25T04:20:34.016Z,60.31
2022-07-25T04:23:05.536Z,60.24
2022-07-25T04:25:37.841Z,60.13
2022-07-25T04:28:09.357Z,59.46
2022-07-25T04:30:41.183Z,59.32
2022-07-25T04:33:12.687Z,58.95
2022-07-25T04:35:44.553Z,58.60
2022-07-25T04:38:16.067Z,57.95
2022-07-25T04:40:47.874Z,57.59
2022-07-25T04:43:19.372Z,57.38
2022-07-25T04:45:51.473Z,56.85
2022-07-25T04:48:23.057Z,56.63
2022-07-25T04:50:54.627Z,56.45
2022-07-25T04:53:26.144Z,56.06
2022-07-25T04:55:57.734Z,55.37
2022-07-25T04:58:29.617Z,54.88
2022-07-25T05:01:01.202Z,54.56
2022-07-25T05:03:32.749Z,54.66
2022-07-25T05:06:04.266Z,53.97
2022-07-25T05:08:35.849Z,53.53
2022-07-25T05:11:07.403Z,53.32
2022-07-25T05:13:39.453Z,53.30
2022-07-25T05:16:11.057Z,53.37
2022-07-25T05:18:42.648Z,52.70
2022-07-25T05:21:14.319Z,52.53
2022-07-25T05:23:46.181Z,52.29
2022-07-25T05:26:18.027Z,52.42
2022-07-25T05:28:49.927Z,52.25
2022-07-25T05:31:21.478Z,51.94
2022-07-25T05:33:53.508Z,51.47
2022-07-25T05:36:25.032Z,51.31
2022-07-25T05:38:56.940Z,50.78
2022-07-25T05:41:28.496Z,50.95
2022-07-25T05:44:00.344Z,50.77
2022-07-25T05:46:31.964Z,50.37
2022-07-25T05:49:03.570Z,50.55
2022-07-25T05:51:35.129Z,49.47
2022-07-25T05:54:07.593Z,49.77
2022-07-25T05:56:39.439Z,49.95
2022-07-25T05:59:11.336Z,49.70
2022-07-25T06:01:43.150Z,48.79
2022-07-25T06:04:14.867Z,48.92
2022-07-25T06:06:51.268Z,48.50
2022-07-25T06:09:23.130Z,49.34
2022-07-25T06:12:00.272Z,47.55
2022-07-25T06:14:32.667Z,47.64
2022-07-25T06:17:04.190Z,48.13
2022-07-25T06:19:35.748Z,47.32
2022-07-25T06:22:09.288Z,46.32
2022-07-25T06:24:41.276Z,47.23
2022-07-25T06:27:14.975Z,46.43
2022-07-25T06:29:50.419Z,46.35
2022-07-25T06:32:21.958Z,46.18
2022-07-25T06:34:53.498Z,45.92
2022-07-25T06:37:25.062Z,45.34
2022-07-25T06:39:56.663Z,45.43
2022-07-25T06:42:31.373Z,44.86
2022-07-25T06:45:03.198Z,44.61
2022-07-25T06:47:36.186Z,44.56
2022-07-25T06:50:08.110Z,43.94
2022-07-25T06:52:42.876Z,43.48
2022-07-25T06:55:15.401Z,44.27
2022-07-25T06:57:46.936Z,44.43
2022-07-25T07:00:18.926Z,45.21
2022-07-25T07:02:53.488Z,44.13
2022-07-25T07:05:25.687Z,44.17
2022-07-25T07:07:57.267Z,44.31
2022-07-25T07:10:29.290Z,43.47
2022-07-25T07:13:00.948Z,44.20
2022-07-25T07:15:32.849Z,44.30
2022-07-25T07:18:04.434Z,44.59
2022-07-25T07:20:36.392Z,44.18
2022-07-25T07:23:07.955Z,44.43
2022-07-25T07:25:40.591Z,44.11
2022-07-25T07:28:14.905Z,44.78
2022-07-25T07:33:38.826Z,43.66
2022-07-25T07:36:10.371Z,43.25
2022-07-25T07:38:42.542Z,43.12
2022-07-25T07:41:14.096Z,43.54
2022-07-25T07:43:46.053Z,43.13
2022-07-25T07:46:17.660Z,42.84
2022-07-25T07:48:49.694Z,43.30
2022-07-25T07:51:21.298Z,42.99
2022-07-25T07:54:11.751Z,42.71
2022-07-25T07:56:45.777Z,43.13
2022-07-25T07:59:17.783Z,42.40
2022-07-25T08:01:49.356Z,42.53
2022-07-25T08:04:21.338Z,42.36
2022-07-25T08:06:52.912Z,42.47
2022-07-25T08:09:26.176Z,42.47
2022-07-25T08:11:57.720Z,42.03
2022-07-25T08:14:29.637Z,41.82
2022-07-25T08:17:01.244Z,41.90
2022-07-25T08:19:33.233Z,40.94
2022-07-25T08:22:04.895Z,40.53
2022-07-25T08:24:36.801Z,40.31
2022-07-25T08:27:08.349Z,39.63
2022-07-25T08:29:40.377Z,39.48
2022-07-25T08:32:11.933Z,39.72
2022-07-25T08:34:43.828Z,39.54
2022-07-25T08:37:15.566Z,39.62
2022-07-25T08:39:47.499Z,39.72
2022-07-25T08:42:19.653Z,40.06
2022-07-25T08:44:51.775Z,39.19
2022-07-25T08:47:23.399Z,39.20
2022-07-25T08:49:55.342Z,39.87
2022-07-25T08:52:27.110Z,38.91
2022-07-25T08:54:58.991Z,38.25
2022-07-25T08:57:30.569Z,38.01
2022-07-25T09:00:02.639Z,37.90
2022-07-25T09:02:34.366Z,38.18
2022-07-25T09:05:06.318Z,38.04
2022-07-25T09:07:37.882Z,37.52
2022-07-25T09:10:09.865Z,36.94
2022-07-25T09:12:41.452Z,36.97
2022-07-25T09:15:13.508Z,36.89
2022-07-25T09:17:45.085Z,36.79
2022-07-25T09:20:18.659Z,36.38
2022-07-25T09:22:50.371Z,36.71
2022-07-25T09:25:22.254Z,36.45
2022-07-25T09:27:53.825Z,36.74
2022-07-25T09:30:25.665Z,35.91
2022-07-25T09:32:57.212Z,36.78
2022-07-25T09:35:29.038Z,36.71
2022-07-25T09:38:00.549Z,37.10
2022-07-25T09:40:32.416Z,36.89
2022-07-25T09:43:03.941Z,36.56
2022-07-25T09:45:35.818Z,35.39
2022-07-25T09:48:07.357Z,35.47
2022-07-25T09:50:39.267Z,35.08
2022-07-25T09:53:10.795Z,34.38
2022-07-25T09:55:42.719Z,35.32
2022-07-25T09:58:14.292Z,34.49
2022-07-25T10:00:46.194Z,33.41
2022-07-25T10:03:17.756Z,34.27
2022-07-25T10:05:49.724Z,34.64
2022-07-25T10:08:21.366Z,33.67
2022-07-25T10:10:53.395Z,34.07
2022-07-25T10:13:24.945Z,33.56
2022-07-25T10:15:56.822Z,33.46
2022-07-25T10:18:28.846Z,34.18
2022-07-25T10:21:00.783Z,33.47
2022-07-25T10:23:32.659Z,33.68
2022-07-25T10:26:04.391Z,33.30
2022-07-25T10:28:35.920Z,32.30
2022-07-25T10:31:07.522Z,32.92
2022-07-25T10:33:39.485Z,32.53
2022-07-25T10:36:11.463Z,32.84
2022-07-25T10:38:43.192Z,32.69
2022-07-25T10:41:15.261Z,32.51
2022-07-25T10:43:48.905Z,32.58
2022-07-25T10:46:22.445Z,31.81
2022-07-25T10:48:54.733Z,31.23
2022-07-25T10:51:26.275Z,31.44
2022-07-25T10:53:58.226Z,30.62
2022-07-25T10:56:29.816Z,30.18
2022-07-25T10:59:01.379Z,30.46
2022-07-25T11:01:33.008Z,30.37
2022-07-25T11:04:05.230Z,30.52
2022-07-25T11:06:36.790Z,29.91
2022-07-25T11:09:09.144Z,31.68
2022-07-25T11:11:41.045Z,31.14
2022-07-25T11:14:12.858Z,30.73
2022-07-25T11:16:44.452Z,30.69
2022-07-25T11:19:16.041Z,32.06
2022-07-25T11:21:47.637Z,30.88
2022-07-25T11:24:19.235Z,31.16
2022-07-25T11:26:50.806Z,29.98
2022-07-25T11:29:22.716Z,30.80
2022-07-25T11:31:54.302Z,29.94
2022-07-25T11:34:25.904Z,30.32
2022-07-25T11:36:57.514Z,29.89
2022-07-25T11:39:29.374Z,29.86
2022-07-25T11:42:00.954Z,29.24
2022-07-25T11:44:32.558Z,28.44
2022-07-25T11:47:04.158Z,28.07
2022-07-25T11:49:36.076Z,28.70
2022-07-25T11:52:07.591Z,29.76
2022-07-25T11:54:39.126Z,29.74
2022-07-25T11:57:14.455Z,30.28
2022-07-25T11:59:49.116Z,30.46
2022-07-25T12:02:20.759Z,29.82
2022-07-25T12:04:54.404Z,30.38
2022-07-25T12:07:25.934Z,29.31
2022-07-25T12:09:57.848Z,28.80
2022-07-25T12:12:29.392Z,28.90
2022-07-25T12:15:00.959Z,29.32
2022-07-25T12:17:32.786Z,28.53
2022-07-25T12:20:09.147Z,29.13
2022-07-25T12:22:42.477Z,28.61
2022-07-25T12:25:14.392Z,28.88
2022-07-25T12:27:45.991Z,28.43
2022-07-25T12:30:17.879Z,28.10
2022-07-25T12:32:49.487Z,27.56
2022-07-25T12:35:21.079Z,27.58
2022-07-25T12:37:52.608Z,27.59
2022-07-25T12:40:24.515Z,27.80
2022-07-25T12:42:57.223Z,26.03
2022-07-25T12:45:28.838Z,26.16
2022-07-25T12:48:00.560Z,27.40
2022-07-25T12:50:32.519Z,27.28
2022-07-25T12:53:04.516Z,27.11
2022-07-25T12:55:36.399Z,26.86
2022-07-25T12:58:08.908Z,27.63
2022-07-25T13:00:40.911Z,27.87
2022-07-25T13:03:12.466Z,26.72
2022-07-25T13:05:44.538Z,26.74
2022-07-25T13:08:16.064Z,27.23
2022-07-25T13:10:47.994Z,27.16
2022-07-25T13:13:19.530Z,27.09
2022-07-25T13:15:51.541Z,27.49
2022-07-25T13:18:23.166Z,27.53
2022-07-25T13:20:55.031Z,27.25
2022-07-25T13:23:26.576Z,26.65
2022-07-25T13:26:00.381Z,27.60
2022-07-25T13:28:31.921Z,27.98
2022-07-25T13:31:06.263Z,28.42
2022-07-25T13:33:37.787Z,27.57
2022-07-25T13:36:09.629Z,27.69
2022-07-25T13:38:41.861Z,27.61
2022-07-25T13:41:13.403Z,28.00
2022-07-25T13:43:45.031Z,27.80
2022-07-25T13:46:17.104Z,27.27
2022-07-25T13:48:48.724Z,27.09
2022-07-25T13:51:20.323Z,26.70
2022-07-25T13:53:51.868Z,26.66
2022-07-25T13:56:23.865Z,26.07
2022-07-25T13:58:55.417Z,25.42
2022-07-25T14:01:28.546Z,25.11
2022-07-25T14:04:00.301Z,26.08
2022-07-25T14:06:32.268Z,25.97
2022-07-25T14:09:04.121Z,25.75
2022-07-25T14:11:35.838Z,26.04
2022-07-25T14:14:07.391Z,24.54
2022-07-25T14:16:38.977Z,24.88
2022-07-25T14:19:10.947Z,24.52
2022-07-25T14:21:42.555Z,24.75
2022-07-25T14:24:14.184Z,24.54
2022-07-25T14:26:45.707Z,24.71
2022-07-25T14:29:17.595Z,24.75
2022-07-25T14:31:49.700Z,24.66
2022-07-25T14:34:21.377Z,23.97
2022-07-25T14:36:52.909Z,24.42
2022-07-25T14:39:24.862Z,24.53
2022-07-25T14:41:57.801Z,24.25
2022-07-25T14:44:29.627Z,25.82
2022-07-25T14:47:02.035Z,25.25
2022-07-25T14:49:33.901Z,25.75
2022-07-25T14:52:05.496Z,25.98
2022-07-25T14:54:37.516Z,26.16
2022-07-25T14:57:09.084Z,26.50
2022-07-25T14:59:40.970Z,26.92
2022-07-25T15:02:12.516Z,27.15
2022-07-25T15:04:44.473Z,27.26
2022-07-25T15:07:16.038Z,27.37
2022-07-25T15:09:47.594Z,27.30
2022-07-25T15:12:20.759Z,27.42
2022-07-25T15:14:52.635Z,28.08
2022-07-25T15:17:24.206Z,28.25
2022-07-25T15:19:55.755Z,28.02
2022-07-25T15:22:27.314Z,27.68
2022-07-25T15:25:34.771Z,27.57
2022-07-25T15:27:50.678Z,28.12
2022-07-25T15:30:27.341Z,27.37
2022-07-25T15:33:00.690Z,27.29
2022-07-25T15:35:32.215Z,27.45
2022-07-25T15:38:03.746Z,27.99
2022-07-25T15:40:35.292Z,27.40
2022-07-25T15:43:06.821Z,28.07
2022-07-25T15:45:39.470Z,28.12
2022-07-25T15:48:11.038Z,27.55
2022-07-25T15:50:43.217Z,27.08
2022-07-25T15:53:14.763Z,27.33
2022-07-25T15:55:46.678Z,27.16
2022-07-25T15:58:18.607Z,26.02
2022-07-25T16:00:50.190Z,26.56
2022-07-25T16:03:21.886Z,26.58
2022-07-25T16:05:55.514Z,26.48
2022-07-25T16:08:27.464Z,26.74
2022-07-25T16:10:59.809Z,27.05
2022-07-25T16:13:31.639Z,26.95
2022-07-25T16:16:03.217Z,27.10
2022-07-25T16:18:35.129Z,27.63
2022-07-25T16:21:06.873Z,27.63
2022-07-25T16:23:43.756Z,27.79
2022-07-25T16:26:16.934Z,27.93
2022-07-25T16:28:48.986Z,28.23
2022-07-25T16:31:20.560Z,28.21
2022-07-25T16:33:52.162Z,28.10
2022-07-25T16:36:25.326Z,28.57
2022-07-25T16:38:57.364Z,28.07
2022-07-25T16:41:28.891Z,28.05
2022-07-25T16:44:02.356Z,28.36
2022-07-25T16:46:33.932Z,28.66
2022-07-25T16:49:06.116Z,28.21
2022-07-25T16:51:37.912Z,28.97
2022-07-25T16:54:10.532Z,28.92
2022-07-25T16:56:42.073Z,29.12
2022-07-25T16:59:13.798Z,29.03
2022-07-25T17:01:46.534Z,30.84
2022-07-25T17:04:18.296Z,33.02
2022-07-25T17:06:49.966Z,34.10
2022-07-25T17:09:22.075Z,35.77
2022-07-25T17:11:53.597Z,39.05
2022-07-25T17:14:30.064Z,41.84
2022-07-25T17:17:01.951Z,43.87
2022-07-25T17:19:36.726Z,48.07
2022-07-25T17:22:08.250Z,58.57
2022-07-25T17:24:39.965Z,63.46
2022-07-25T17:27:11.495Z,70.08
2022-07-25T17:29:43.569Z,70.44
2022-07-25T17:32:15.161Z,75.04
2022-07-25T17:34:47.427Z,76.92
2022-07-25T17:37:18.953Z,83.60
2022-07-25T17:39:50.957Z,84.60
2022-07-25T17:42:22.503Z,72.56
2022-07-25T17:44:54.121Z,78.08
2022-07-25T17:47:25.680Z,75.22
2022-07-25T17:49:57.242Z,83.19
2022-07-25T17:52:28.779Z,81.86
2022-07-25T17:55:00.751Z,81.48
2022-07-25T17:57:32.981Z,85.90
2022-07-25T18:00:04.856Z,87.09
2022-07-25T18:02:36.439Z,90.09
2022-07-25T18:05:08.000Z,86.70
2022-07-25T18:07:45.559Z,92.53
2022-07-25T18:10:17.542Z,97.94
2022-07-25T18:12:49.068Z,96.19
2022-07-25T18:15:20.928Z,96.23
2022-07-25T18:17:52.875Z,100.00
2022-07-25T18:20:24.989Z,98.99
2022-07-25T18:22:58.572Z,100.00
2022-07-25T18:25:30.145Z,100.00
2022-07-25T18:28:01.708Z,98.44
2022-07-25T18:30:33.606Z,96.83
2022-07-25T18:33:05.122Z,95.67
2022-07-25T18:35:37.016Z,94.43
2022-07-25T18:38:09.102Z,96.95
2022-07-25T18:40:41.030Z,99.93
2022-07-25T18:43:12.579Z,100.00
2022-07-25T18:45:47.151Z,100.00
2022-07-25T18:48:18.710Z,100.00
2022-07-25T18:50:50.243Z,100.00
2022-07-25T18:53:22.106Z,99.95
2022-07-25T18:55:54.147Z,100.00
2022-07-25T18:58:25.712Z,100.00
2022-07-25T19:00:57.308Z,100.00
2022-07-25T19:03:28.862Z,100.00
2022-07-25T19:06:03.355Z,100.00
2022-07-25T19:08:35.225Z,100.00
2022-07-25T19:11:07.216Z,100.00
2022-07-25T19:13:49.499Z,100.00
2022-07-25T19:16:22.186Z,100.00
2022-07-25T19:18:53.751Z,100.00
2022-07-25T19:21:25.781Z,100.00
2022-07-25T19:23:57.294Z,98.07
2022-07-25T19:26:29.142Z,95.52
2022-07-25T19:29:01.025Z,100.00
2022-07-25T19:31:32.710Z,98.68
2022-07-25T19:34:05.135Z,100.00
2022-07-25T19:36:36.839Z,99.67
2022-07-25T19:39:08.869Z,99.76
2022-07-25T19:41:44.782Z,99.95
2022-07-25T19:44:18.713Z,100.00
2022-07-25T19:46:50.290Z,99.34
2022-07-25T19:49:22.366Z,99.43
2022-07-25T19:51:53.880Z,99.73
2022-07-25T19:54:25.812Z,100.00
2022-07-25T19:56:57.843Z,99.76
2022-07-25T19:59:29.826Z,100.00
2022-07-25T20:02:01.478Z,100.00
2022-07-25T20:04:33.617Z,92.49
2022-07-25T20:07:05.214Z,89.07
2022-07-25T20:09:37.113Z,90.84
2022-07-25T20:12:08.702Z,91.82
2022-07-25T20:14:40.639Z,91.68
2022-07-25T20:17:12.290Z,94.52
2022-07-25T20:19:44.289Z,97.48
2022-07-25T20:22:15.858Z,97.86
2022-07-25T20:24:47.899Z,96.73
2022-07-25T20:27:19.564Z,95.39
2022-07-25T20:29:51.997Z,94.92
2022-07-25T20:32:23.581Z,92.63
2022-07-25T20:34:55.507Z,91.30
2022-07-25T20:37:27.066Z,90.29
2022-07-25T20:39:58.965Z,89.27
2022-07-25T20:42:30.545Z,89.57
2022-07-25T20:45:02.451Z,88.21
2022-07-25T20:47:34.292Z,88.89
2022-07-25T20:50:06.184Z,88.25
2022-07-25T20:52:37.795Z,86.99
2022-07-25T20:55:09.651Z,86.84
2022-07-25T20:57:41.206Z,85.75
2022-07-25T21:00:13.296Z,85.80
2022-07-25T21:02:44.946Z,86.43
2022-07-25T21:05:17.060Z,87.05
2022-07-25T21:07:48.653Z,87.05
2022-07-25T21:10:20.723Z,87.75
2022-07-25T21:12:52.296Z,88.16
2022-07-25T21:15:24.340Z,88.65
2022-07-25T21:17:55.911Z,88.53
2022-07-25T21:20:27.864Z,88.58
2022-07-25T21:22:59.441Z,89.53
2022-07-25T21:25:31.494Z,89.36
2022-07-25T21:28:03.278Z,89.19
2022-07-25T21:30:35.981Z,90.85
2022-07-25T21:33:14.413Z,91.05
2022-07-25T21:35:51.817Z,89.35
2022-07-25T21:38:27.584Z,90.55
2022-07-25T21:41:01.261Z,96.14
2022-07-25T21:43:33.218Z,100.00
2022-07-25T21:46:04.862Z,100.00
2022-07-25T21:48:55.611Z,100.00
2022-07-25T21:51:33.314Z,100.00
2022-07-25T21:54:12.639Z,100.00
2022-07-25T21:56:44.347Z,100.00
2022-07-25T21:59:16.251Z,100.00
2022-07-25T22:01:47.843Z,100.00
2022-07-25T22:04:19.924Z,100.00
2022-07-25T22:06:51.542Z,100.00
2022-07-25T22:09:23.550Z,100.00
2022-07-25T22:11:55.111Z,100.00
2022-07-25T22:14:27.121Z,100.00
2022-07-25T22:16:58.817Z,100.00
2022-07-25T22:19:30.773Z,100.00
2022-07-25T22:22:02.344Z,100.00
2022-07-25T22:24:34.436Z,100.00
2022-07-25T22:27:05.981Z,100.00
2022-07-25T22:29:38.087Z,100.00
2022-07-25T22:32:09.718Z,100.00
2022-07-25T22:34:41.744Z,100.00
2022-07-25T22:37:13.338Z,100.00
2022-07-25T22:39:45.233Z,100.00
2022-07-25T22:42:16.992Z,100.00
2022-07-25T22:44:49.039Z,100.00
2022-07-25T22:47:20.636Z,100.00
2022-07-25T22:49:52.527Z,100.00
2022-07-25T22:52:24.076Z,100.00
2022-07-25T22:54:56.049Z,100.00
2022-07-25T22:57:27.647Z,100.00
2022-07-25T22:59:59.708Z,100.00
2022-07-25T23:02:31.278Z,100.00
2022-07-25T23:05:03.320Z,100.00
2022-07-25T23:07:34.945Z,100.00
2022-07-25T23:10:06.951Z,100.00
2022-07-25T23:12:38.513Z,100.00
2022-07-25T23:15:10.479Z,100.00
2022-07-25T23:17:42.096Z,100.00
2022-07-25T23:20:14.051Z,100.00
2022-07-25T23:22:45.650Z,100.00
2022-07-25T23:25:17.571Z,100.00
2022-07-25T23:27:49.138Z,100.00
2022-07-25T23:30:21.230Z,100.00
2022-07-25T23:32:52.790Z,100.00
2022-07-25T23:35:24.765Z,100.00
2022-07-25T23:37:56.333Z,100.00
2022-07-25T23:40:28.345Z,100.00
2022-07-25T23:42:59.925Z,100.00
2022-07-25T23:45:31.823Z,100.00
2022-07-25T23:48:03.463Z,100.00
2022-07-25T23:50:35.378Z,100.00
2022-07-25T23:53:07.110Z,100.00
2022-07-25T23:55:39.056Z,100.00
2022-07-25T23:58:10.836Z,100.00
